createdAt,value
2022-10-05T00:00:08.676Z,403
2022-10-05T00:01:06.989Z,418
2022-10-05T00:02:07.575Z,411
2022-10-05T00:03:07.150Z,408
2022-10-05T00:04:08.022Z,401
2022-10-05T00:05:07.836Z,398
2022-10-05T00:06:07.501Z,402
2022-10-05T00:07:07.093Z,400
2022-10-05T00:08:07.861Z,402
2022-10-05T00:10:07.233Z,398
2022-10-05T00:11:07.970Z,407
2022-10-05T00:12:07.583Z,401
2022-10-05T00:14:07.744Z,395
2022-10-05T00:15:07.823Z,405
2022-10-05T00:16:07.564Z,414
2022-10-05T00:17:07.532Z,410
2022-10-05T00:18:07.431Z,409
2022-10-05T00:19:07.328Z,401
2022-10-05T00:20:08.077Z,403
2022-10-05T00:21:07.719Z,395
2022-10-05T00:22:07.563Z,396
2022-10-05T00:23:07.439Z,399
2022-10-05T00:24:07.254Z,409
2022-10-05T00:25:08.183Z,397
2022-10-05T00:26:07.993Z,406
2022-10-05T00:27:07.766Z,409
2022-10-05T00:28:07.390Z,413
2022-10-05T00:30:08.011Z,403
2022-10-05T00:31:07.699Z,384
2022-10-05T00:32:07.911Z,382
2022-10-05T00:33:07.733Z,387
2022-10-05T00:34:07.582Z,378
2022-10-05T00:35:07.541Z,413
2022-10-05T00:36:07.029Z,405
2022-10-05T00:37:07.735Z,401
2022-10-05T00:38:07.545Z,406
2022-10-05T00:39:07.439Z,402
2022-10-05T00:40:07.035Z,403
2022-10-05T00:41:07.809Z,404
2022-10-05T00:42:07.691Z,402
2022-10-05T00:43:07.593Z,403
2022-10-05T00:44:07.549Z,412
2022-10-05T00:45:07.320Z,408
2022-10-05T00:46:07.216Z,395
2022-10-05T00:47:07.239Z,404
2022-10-05T00:48:08.014Z,411
2022-10-05T00:49:07.690Z,410
2022-10-05T00:52:07.670Z,412
2022-10-05T00:53:07.429Z,416
2022-10-05T00:54:07.317Z,414
2022-10-05T00:55:07.887Z,388
2022-10-05T00:56:07.646Z,406
2022-10-05T00:57:07.484Z,410
2022-10-05T00:58:07.173Z,413
2022-10-05T00:59:07.724Z,412
2022-10-05T01:00:08.429Z,414
2022-10-05T01:01:07.338Z,419
2022-10-05T01:02:07.211Z,415
2022-10-05T01:04:07.121Z,412
2022-10-05T01:05:07.690Z,418
2022-10-05T01:06:07.459Z,414
2022-10-05T01:07:07.961Z,412
2022-10-05T01:08:07.471Z,407
2022-10-05T01:10:07.726Z,402
2022-10-05T01:12:07.190Z,398
2022-10-05T01:13:07.679Z,401
2022-10-05T01:14:07.399Z,400
2022-10-05T01:15:07.104Z,416
2022-10-05T01:16:07.620Z,391
2022-10-05T01:17:07.655Z,402
2022-10-05T01:18:07.302Z,406
2022-10-05T01:19:07.907Z,405
2022-10-05T01:20:07.545Z,396
2022-10-05T01:21:07.177Z,398
2022-10-05T01:22:07.592Z,399
2022-10-05T01:23:07.127Z,403
2022-10-05T01:24:07.535Z,399
2022-10-05T01:25:07.471Z,396
2022-10-05T01:26:07.354Z,404
2022-10-05T01:28:07.861Z,411
2022-10-05T01:29:07.557Z,404
2022-10-05T01:30:07.574Z,396
2022-10-05T01:31:07.436Z,395
2022-10-05T01:32:07.082Z,387
2022-10-05T01:34:11.317Z,384
2022-10-05T01:35:07.434Z,401
2022-10-05T01:37:07.752Z,400
2022-10-05T01:38:07.396Z,405
2022-10-05T01:39:08.105Z,393
2022-10-05T01:40:07.574Z,399
2022-10-05T01:41:07.321Z,405
2022-10-05T01:42:07.867Z,398
2022-10-05T01:43:12.529Z,395
2022-10-05T01:44:07.604Z,399
2022-10-05T01:45:07.758Z,406
2022-10-05T01:46:07.398Z,401
2022-10-05T01:47:06.746Z,402
2022-10-05T01:49:07.656Z,406
2022-10-05T01:50:07.166Z,392
2022-10-05T01:51:07.644Z,397
2022-10-05T01:52:07.467Z,400
2022-10-05T01:53:07.095Z,397
2022-10-05T01:54:07.785Z,402
2022-10-05T01:55:07.833Z,412
2022-10-05T01:56:07.419Z,379
2022-10-05T01:57:06.773Z,403
2022-10-05T01:58:07.307Z,412
2022-10-05T01:59:07.834Z,408
2022-10-05T02:00:08.289Z,403
2022-10-05T02:01:07.086Z,404
2022-10-05T02:02:12.546Z,403
2022-10-05T02:03:07.529Z,408
2022-10-05T02:04:07.114Z,398
2022-10-05T02:05:07.754Z,404
2022-10-05T02:06:07.530Z,408
2022-10-05T02:07:07.215Z,413
2022-10-05T02:08:07.776Z,410
2022-10-05T02:09:07.543Z,399
2022-10-05T02:10:07.378Z,397
2022-10-05T02:11:06.905Z,401
2022-10-05T02:12:15.533Z,404
2022-10-05T02:13:07.923Z,409
2022-10-05T02:14:07.660Z,411
2022-10-05T02:15:07.890Z,404
2022-10-05T02:16:07.272Z,405
2022-10-05T02:17:07.328Z,394
2022-10-05T02:18:07.267Z,392
2022-10-05T02:19:07.187Z,398
2022-10-05T02:20:07.783Z,404
2022-10-05T02:21:07.681Z,396
2022-10-05T02:22:07.410Z,386
2022-10-05T02:23:07.016Z,398
2022-10-05T02:24:07.483Z,390
2022-10-05T02:25:07.203Z,394
2022-10-05T02:26:08.001Z,397
2022-10-05T02:27:07.857Z,392
2022-10-05T02:28:07.501Z,381
2022-10-05T02:29:07.331Z,386
2022-10-05T02:30:08.837Z,387
2022-10-05T02:31:08.085Z,385
2022-10-05T02:32:07.915Z,386
2022-10-05T02:33:07.700Z,384
2022-10-05T02:34:07.402Z,382
2022-10-05T02:35:08.051Z,385
2022-10-05T02:36:07.705Z,392
2022-10-05T02:37:07.704Z,373
2022-10-05T02:38:07.421Z,375
2022-10-05T02:39:08.349Z,378
2022-10-05T02:40:07.230Z,370
2022-10-05T02:41:08.095Z,368
2022-10-05T02:42:07.994Z,375
2022-10-05T02:43:07.692Z,372
2022-10-05T02:44:07.599Z,369
2022-10-05T02:45:07.618Z,367
2022-10-05T02:46:07.441Z,374
2022-10-05T02:48:07.954Z,376
2022-10-05T02:49:07.614Z,375
2022-10-05T02:50:07.633Z,372
2022-10-05T02:51:07.713Z,373
2022-10-05T02:52:07.631Z,377
2022-10-05T02:53:07.501Z,369
2022-10-05T02:54:07.131Z,372
2022-10-05T02:55:07.962Z,364
2022-10-05T02:56:07.780Z,363
2022-10-05T02:57:07.732Z,380
2022-10-05T02:58:07.260Z,365
2022-10-05T02:59:07.908Z,380
2022-10-05T03:00:08.380Z,379
2022-10-05T03:01:07.367Z,380
2022-10-05T03:03:07.525Z,384
2022-10-05T03:04:07.398Z,378
2022-10-05T03:05:07.243Z,373
2022-10-05T03:06:07.793Z,369
2022-10-05T03:07:07.670Z,371
2022-10-05T03:08:07.554Z,367
2022-10-05T03:09:07.454Z,374
2022-10-05T03:10:07.312Z,385
2022-10-05T03:11:08.251Z,390
2022-10-05T03:12:08.003Z,382
2022-10-05T03:13:07.685Z,367
2022-10-05T03:14:07.336Z,363
2022-10-05T03:15:07.560Z,372
2022-10-05T03:16:07.249Z,363
2022-10-05T03:17:08.062Z,407
2022-10-05T03:18:07.826Z,379
2022-10-05T03:19:07.562Z,370
2022-10-05T03:20:07.469Z,367
2022-10-05T03:21:07.400Z,365
2022-10-05T03:22:07.008Z,362
2022-10-05T03:23:07.676Z,366
2022-10-05T03:24:07.663Z,367
2022-10-05T03:25:07.720Z,366
2022-10-05T03:26:07.454Z,364
2022-10-05T03:27:07.503Z,367
2022-10-05T03:28:07.402Z,370
2022-10-05T03:29:07.438Z,366
2022-10-05T03:30:07.628Z,370
2022-10-05T03:32:07.497Z,372
2022-10-05T03:34:07.854Z,360
2022-10-05T03:35:07.530Z,366
2022-10-05T03:36:07.310Z,367
2022-10-05T03:37:07.899Z,366
2022-10-05T03:38:07.528Z,389
2022-10-05T03:39:07.206Z,359
2022-10-05T03:40:07.741Z,362
2022-10-05T03:41:07.440Z,376
2022-10-05T03:43:07.430Z,368
2022-10-05T03:44:07.318Z,367
2022-10-05T03:45:08.423Z,368
2022-10-05T03:46:07.176Z,365
2022-10-05T03:47:07.948Z,370
2022-10-05T03:48:07.790Z,374
2022-10-05T03:49:07.545Z,366
2022-10-05T03:50:07.639Z,359
2022-10-05T03:51:07.585Z,364
2022-10-05T03:52:07.669Z,370
2022-10-05T03:53:07.426Z,365
2022-10-05T03:54:07.199Z,359
2022-10-05T03:55:07.374Z,356
2022-10-05T03:56:07.080Z,365
2022-10-05T03:57:07.728Z,352
2022-10-05T03:58:07.533Z,403
2022-10-05T03:59:07.378Z,386
2022-10-05T04:00:07.992Z,373
2022-10-05T04:01:07.935Z,369
2022-10-05T04:02:07.934Z,362
2022-10-05T04:03:07.743Z,359
2022-10-05T04:04:07.419Z,361
2022-10-05T04:05:07.337Z,369
2022-10-05T04:06:07.032Z,358
2022-10-05T04:07:07.587Z,371
2022-10-05T04:08:07.360Z,362
2022-10-05T04:09:07.320Z,359
2022-10-05T04:10:07.249Z,370
2022-10-05T04:11:07.954Z,368
2022-10-05T04:12:07.813Z,366
2022-10-05T04:13:07.727Z,378
2022-10-05T04:14:07.579Z,371
2022-10-05T04:16:07.595Z,380
2022-10-05T04:17:07.600Z,366
2022-10-05T04:18:07.340Z,369
2022-10-05T04:19:06.919Z,370
2022-10-05T04:20:07.626Z,362
2022-10-05T04:21:07.439Z,359
2022-10-05T04:22:07.258Z,367
2022-10-05T04:24:07.480Z,363
2022-10-05T04:25:07.622Z,371
2022-10-05T04:26:07.708Z,373
2022-10-05T04:27:07.232Z,365
2022-10-05T04:28:07.570Z,366
2022-10-05T04:29:07.454Z,372
2022-10-05T04:30:07.711Z,367
2022-10-05T04:31:07.554Z,372
2022-10-05T04:32:07.540Z,361
2022-10-05T04:33:12.429Z,356
2022-10-05T04:34:07.126Z,360
2022-10-05T04:35:08.060Z,371
2022-10-05T04:36:07.831Z,370
2022-10-05T04:37:07.652Z,369
2022-10-05T04:38:07.565Z,377
2022-10-05T04:39:08.046Z,352
2022-10-05T04:40:07.720Z,359
2022-10-05T04:41:07.840Z,361
2022-10-05T04:42:07.782Z,363
2022-10-05T04:43:07.595Z,362
2022-10-05T04:44:07.265Z,357
2022-10-05T04:45:07.515Z,367
2022-10-05T04:46:07.369Z,369
2022-10-05T04:47:07.354Z,366
2022-10-05T04:48:07.422Z,358
2022-10-05T04:49:07.259Z,360
2022-10-05T04:50:07.215Z,366
2022-10-05T04:51:08.295Z,372
2022-10-05T04:52:07.188Z,367
2022-10-05T04:53:07.954Z,357
2022-10-05T04:54:07.794Z,366
2022-10-05T04:55:07.736Z,360
2022-10-05T04:56:07.509Z,368
2022-10-05T04:57:07.305Z,371
2022-10-05T04:59:07.605Z,364
2022-10-05T05:00:08.229Z,341
2022-10-05T05:01:07.980Z,357
2022-10-05T05:02:08.121Z,361
2022-10-05T05:03:07.304Z,371
2022-10-05T05:04:08.020Z,374
2022-10-05T05:05:08.289Z,380
2022-10-05T05:06:17.289Z,371
2022-10-05T05:07:07.899Z,378
2022-10-05T05:08:07.768Z,381
2022-10-05T05:09:07.647Z,379
2022-10-05T05:10:07.830Z,371
2022-10-05T05:11:10.342Z,368
2022-10-05T05:12:07.192Z,377
2022-10-05T05:13:07.762Z,385
2022-10-05T05:15:08.071Z,382
2022-10-05T05:16:08.126Z,378
2022-10-05T05:17:12.196Z,373
2022-10-05T05:18:07.756Z,363
2022-10-05T05:19:07.483Z,408
2022-10-05T05:20:07.336Z,372
2022-10-05T05:21:07.201Z,365
2022-10-05T05:22:07.385Z,368
2022-10-05T05:23:07.206Z,375
2022-10-05T05:25:08.321Z,379
2022-10-05T05:26:07.313Z,373
2022-10-05T05:28:07.872Z,375
2022-10-05T05:29:07.794Z,379
2022-10-05T05:30:07.853Z,365
2022-10-05T05:31:07.676Z,363
2022-10-05T05:32:07.965Z,365
2022-10-05T05:33:07.886Z,375
2022-10-05T05:34:07.793Z,370
2022-10-05T05:35:07.589Z,367
2022-10-05T05:36:07.410Z,365
2022-10-05T05:37:07.182Z,368
2022-10-05T05:38:07.912Z,372
2022-10-05T05:39:07.874Z,391
2022-10-05T05:40:08.174Z,421
2022-10-05T05:41:08.038Z,369
2022-10-05T05:42:08.056Z,378
2022-10-05T05:44:07.809Z,377
2022-10-05T05:45:08.200Z,370
2022-10-05T05:46:07.234Z,371
2022-10-05T05:47:07.931Z,378
2022-10-05T05:48:07.494Z,376
2022-10-05T05:49:07.269Z,382
2022-10-05T05:50:08.084Z,376
2022-10-05T05:51:07.950Z,372
2022-10-05T05:52:07.761Z,369
2022-10-05T05:53:07.589Z,370
2022-10-05T05:54:07.280Z,366
2022-10-05T05:55:08.288Z,373
2022-10-05T05:56:07.104Z,375
2022-10-05T05:57:07.950Z,376
2022-10-05T05:58:07.962Z,392
2022-10-05T05:59:07.610Z,376
2022-10-05T06:00:08.705Z,391
2022-10-05T06:01:13.188Z,364
2022-10-05T06:02:07.529Z,376
2022-10-05T06:03:08.113Z,377
2022-10-05T06:04:08.063Z,374
2022-10-05T06:05:07.666Z,375
2022-10-05T06:06:07.942Z,380
2022-10-05T06:07:07.801Z,375
2022-10-05T06:08:08.096Z,378
2022-10-05T06:09:08.310Z,382
2022-10-05T06:10:07.482Z,386
2022-10-05T06:11:07.682Z,384
2022-10-05T06:12:07.628Z,385
2022-10-05T06:13:07.794Z,381
2022-10-05T06:14:07.680Z,383
2022-10-05T06:15:08.035Z,392
2022-10-05T06:16:08.240Z,382
2022-10-05T06:17:07.421Z,381
2022-10-05T06:18:07.437Z,376
2022-10-05T06:19:07.468Z,377
2022-10-05T06:20:07.718Z,382
2022-10-05T06:21:07.756Z,356
2022-10-05T06:22:07.856Z,366
2022-10-05T06:23:07.716Z,371
2022-10-05T06:24:07.795Z,380
2022-10-05T06:25:08.034Z,382
2022-10-05T06:26:10.749Z,375
2022-10-05T06:27:08.061Z,378
2022-10-05T06:28:08.139Z,371
2022-10-05T06:29:07.385Z,372
2022-10-05T06:30:07.688Z,377
2022-10-05T06:32:08.072Z,366
2022-10-05T06:33:08.262Z,360
2022-10-05T06:34:07.661Z,365
2022-10-05T06:35:08.376Z,363
2022-10-05T06:36:07.518Z,369
2022-10-05T06:38:07.409Z,367
2022-10-05T06:39:07.367Z,377
2022-10-05T06:40:07.261Z,360
2022-10-05T06:42:07.217Z,368
2022-10-05T06:43:07.902Z,370
2022-10-05T06:44:07.555Z,367
2022-10-05T06:45:07.961Z,376
2022-10-05T06:46:07.923Z,375
2022-10-05T06:47:08.020Z,374
2022-10-05T06:48:08.248Z,381
2022-10-05T06:50:07.682Z,372
2022-10-05T06:51:08.034Z,366
2022-10-05T06:52:08.001Z,371
2022-10-05T06:53:08.069Z,370
2022-10-05T06:54:07.545Z,376
2022-10-05T06:55:13.281Z,372
2022-10-05T06:56:07.688Z,386
2022-10-05T06:57:07.787Z,379
2022-10-05T06:58:07.827Z,384
2022-10-05T06:59:07.569Z,368
2022-10-05T07:00:08.433Z,402
2022-10-05T07:01:07.730Z,382
2022-10-05T07:02:07.959Z,383
2022-10-05T07:03:08.240Z,364
2022-10-05T07:04:07.290Z,369
2022-10-05T07:05:07.444Z,373
2022-10-05T07:06:07.661Z,375
2022-10-05T07:07:07.528Z,370
2022-10-05T07:08:07.596Z,372
2022-10-05T07:09:07.455Z,363
2022-10-05T07:10:07.683Z,368
2022-10-05T07:11:07.585Z,365
2022-10-05T07:12:08.210Z,369
2022-10-05T07:13:07.281Z,377
2022-10-05T07:14:07.359Z,367
2022-10-05T07:15:07.698Z,362
2022-10-05T07:16:07.619Z,364
2022-10-05T07:17:07.760Z,353
2022-10-05T07:18:07.685Z,388
2022-10-05T07:19:07.629Z,385
2022-10-05T07:20:07.778Z,366
2022-10-05T07:21:07.418Z,373
2022-10-05T07:23:07.369Z,372
2022-10-05T07:24:07.288Z,365
2022-10-05T07:25:07.433Z,354
2022-10-05T07:26:07.712Z,356
2022-10-05T07:27:07.636Z,366
2022-10-05T07:28:07.493Z,372
2022-10-05T07:29:07.606Z,370
2022-10-05T07:30:08.128Z,359
2022-10-05T07:31:07.372Z,361
2022-10-05T07:32:07.559Z,373
2022-10-05T07:33:07.880Z,367
2022-10-05T07:34:07.499Z,358
2022-10-05T07:35:07.538Z,357
2022-10-05T07:36:07.352Z,351
2022-10-05T07:37:08.147Z,363
2022-10-05T07:38:08.073Z,361
2022-10-05T07:39:08.102Z,354
2022-10-05T07:40:07.940Z,357
2022-10-05T07:41:07.748Z,354
2022-10-05T07:42:07.456Z,352
2022-10-05T07:43:07.418Z,356
2022-10-05T07:44:12.352Z,353
2022-10-05T07:45:07.634Z,354
2022-10-05T07:46:07.687Z,345
2022-10-05T07:47:07.930Z,338
2022-10-05T07:48:07.846Z,343
2022-10-05T07:49:07.780Z,348
2022-10-05T07:50:07.692Z,357
2022-10-05T07:51:07.460Z,361
2022-10-05T07:52:07.453Z,358
2022-10-05T07:54:07.344Z,352
2022-10-05T07:55:07.394Z,365
2022-10-05T07:56:07.173Z,356
2022-10-05T07:57:08.049Z,326
2022-10-05T07:58:07.846Z,335
2022-10-05T07:59:07.597Z,346
2022-10-05T08:00:08.166Z,343
2022-10-05T08:01:07.055Z,347
2022-10-05T08:02:08.024Z,346
2022-10-05T08:03:07.145Z,357
2022-10-05T08:05:07.658Z,347
2022-10-05T08:06:07.685Z,338
2022-10-05T08:07:07.539Z,335
2022-10-05T08:08:07.704Z,337
2022-10-05T08:09:07.459Z,336
2022-10-05T08:10:26.257Z,335
2022-10-05T08:11:07.330Z,346
2022-10-05T08:12:07.703Z,341
2022-10-05T08:13:07.198Z,349
2022-10-05T08:14:07.955Z,358
2022-10-05T08:16:08.145Z,360
2022-10-05T08:17:07.345Z,362
2022-10-05T08:18:07.214Z,357
2022-10-05T08:19:08.117Z,343
2022-10-05T08:21:07.974Z,351
2022-10-05T08:22:07.781Z,354
2022-10-05T08:23:07.673Z,353
2022-10-05T08:24:07.491Z,347
2022-10-05T08:25:07.617Z,349
2022-10-05T08:26:07.546Z,350
2022-10-05T08:27:07.365Z,338
2022-10-05T08:28:07.338Z,337
2022-10-05T08:29:12.839Z,336
2022-10-05T08:31:07.743Z,342
2022-10-05T08:33:07.443Z,311
2022-10-05T08:34:07.167Z,326
2022-10-05T08:35:08.071Z,344
2022-10-05T08:36:07.913Z,340
2022-10-05T08:37:07.459Z,343
2022-10-05T08:38:07.428Z,336
2022-10-05T08:39:07.452Z,335
2022-10-05T08:40:07.409Z,334
2022-10-05T08:41:07.368Z,340
2022-10-05T08:42:07.256Z,346
2022-10-05T08:43:07.843Z,344
2022-10-05T08:44:07.668Z,347
2022-10-05T08:45:07.668Z,345
2022-10-05T08:46:07.615Z,337
2022-10-05T08:47:07.683Z,336
2022-10-05T08:48:07.585Z,327
2022-10-05T08:49:07.481Z,336
2022-10-05T08:50:07.493Z,344
2022-10-05T08:51:07.617Z,312
2022-10-05T08:52:07.412Z,323
2022-10-05T08:54:08.410Z,331
2022-10-05T08:55:07.535Z,333
2022-10-05T08:56:07.513Z,330
2022-10-05T08:57:07.446Z,338
2022-10-05T08:59:07.282Z,328
2022-10-05T09:00:08.241Z,325
2022-10-05T09:01:07.682Z,335
2022-10-05T09:02:07.930Z,329
2022-10-05T09:03:07.673Z,330
2022-10-05T09:04:07.459Z,332
2022-10-05T09:05:07.484Z,336
2022-10-05T09:07:07.407Z,348
2022-10-05T09:08:07.933Z,331
2022-10-05T09:09:08.015Z,340
2022-10-05T09:10:08.458Z,341
2022-10-05T09:11:07.376Z,331
2022-10-05T09:12:07.411Z,337
2022-10-05T09:13:07.492Z,351
2022-10-05T09:14:07.519Z,336
2022-10-05T09:15:25.370Z,323
2022-10-05T09:16:08.379Z,340
2022-10-05T09:17:12.635Z,331
2022-10-05T09:18:07.668Z,325
2022-10-05T09:19:07.559Z,322
2022-10-05T09:20:07.765Z,321
2022-10-05T09:21:12.651Z,320
2022-10-05T09:22:07.509Z,339
2022-10-05T09:23:07.464Z,334
2022-10-05T09:24:07.654Z,354
2022-10-05T09:25:07.532Z,324
2022-10-05T09:26:07.453Z,329
2022-10-05T09:27:07.316Z,338
2022-10-05T09:28:07.072Z,350
2022-10-05T09:29:07.833Z,348
2022-10-05T09:30:07.713Z,339
2022-10-05T09:31:07.649Z,329
2022-10-05T09:33:07.622Z,332
2022-10-05T09:34:07.844Z,336
2022-10-05T09:35:07.590Z,335
2022-10-05T09:36:07.622Z,332
2022-10-05T09:38:07.415Z,333
2022-10-05T09:39:07.464Z,317
2022-10-05T09:40:07.801Z,361
2022-10-05T09:41:07.620Z,366
2022-10-05T09:42:07.454Z,337
2022-10-05T09:43:07.293Z,338
2022-10-05T09:44:07.202Z,345
2022-10-05T09:45:08.489Z,337
2022-10-05T09:46:07.421Z,346
2022-10-05T09:47:07.916Z,343
2022-10-05T09:48:07.618Z,336
2022-10-05T09:49:07.627Z,340
2022-10-05T09:50:07.920Z,337
2022-10-05T09:51:07.880Z,328
2022-10-05T09:52:07.743Z,332
2022-10-05T09:53:07.351Z,340
2022-10-05T09:55:07.951Z,338
2022-10-05T09:56:08.022Z,324
2022-10-05T09:57:08.129Z,359
2022-10-05T09:58:08.112Z,322
2022-10-05T09:59:07.990Z,319
2022-10-05T10:00:09.200Z,322
2022-10-05T10:01:09.968Z,327
2022-10-05T10:02:07.971Z,346
2022-10-05T10:03:08.028Z,341
2022-10-05T10:04:08.297Z,335
2022-10-05T10:05:07.429Z,340
2022-10-05T10:06:07.567Z,336
2022-10-05T10:07:07.733Z,325
2022-10-05T10:08:07.485Z,334
2022-10-05T10:09:07.599Z,330
2022-10-05T10:10:07.719Z,339
2022-10-05T10:11:07.678Z,333
2022-10-05T10:12:07.475Z,334
2022-10-05T10:13:07.560Z,344
2022-10-05T10:14:07.511Z,322
2022-10-05T10:15:08.178Z,326
2022-10-05T10:16:07.563Z,335
2022-10-05T10:17:07.734Z,332
2022-10-05T10:18:07.745Z,325
2022-10-05T10:19:07.672Z,327
2022-10-05T10:20:08.137Z,332
2022-10-05T10:21:07.578Z,335
2022-10-05T10:22:07.889Z,336
2022-10-05T10:24:07.716Z,332
2022-10-05T10:25:07.879Z,322
2022-10-05T10:26:07.583Z,333
2022-10-05T10:27:07.864Z,340
2022-10-05T10:28:07.845Z,337
2022-10-05T10:29:07.639Z,335
2022-10-05T10:30:07.991Z,333
2022-10-05T10:31:07.751Z,330
2022-10-05T10:32:07.846Z,325
2022-10-05T10:33:07.715Z,319
2022-10-05T10:34:07.490Z,332
2022-10-05T10:35:07.599Z,333
2022-10-05T10:36:07.688Z,338
2022-10-05T10:37:07.823Z,321
2022-10-05T10:38:07.681Z,323
2022-10-05T10:39:07.604Z,335
2022-10-05T10:40:07.754Z,328
2022-10-05T10:41:07.878Z,326
2022-10-05T10:42:07.770Z,334
2022-10-05T10:43:07.720Z,335
2022-10-05T10:44:07.546Z,330
2022-10-05T10:45:08.086Z,326
2022-10-05T10:46:08.101Z,324
2022-10-05T10:47:08.638Z,304
2022-10-05T10:48:07.560Z,306
2022-10-05T10:49:07.307Z,318
2022-10-05T10:50:08.105Z,328
2022-10-05T10:51:07.285Z,342
2022-10-05T10:52:08.284Z,343
2022-10-05T10:53:07.269Z,344
2022-10-05T10:54:07.369Z,345
2022-10-05T10:55:07.686Z,338
2022-10-05T10:56:07.471Z,333
2022-10-05T10:57:07.953Z,338
2022-10-05T10:58:11.245Z,337
2022-10-05T11:00:08.197Z,340
2022-10-05T11:02:07.806Z,353
2022-10-05T11:03:07.933Z,317
2022-10-05T11:04:08.228Z,322
2022-10-05T11:05:07.533Z,339
2022-10-05T11:06:07.679Z,335
2022-10-05T11:07:07.671Z,338
2022-10-05T11:08:07.698Z,329
2022-10-05T11:09:07.642Z,341
2022-10-05T11:10:07.691Z,345
2022-10-05T11:11:07.615Z,330
2022-10-05T11:12:07.691Z,331
2022-10-05T11:13:07.688Z,332
2022-10-05T11:14:07.700Z,343
2022-10-05T11:15:08.647Z,338
2022-10-05T11:17:07.904Z,325
2022-10-05T11:18:08.210Z,339
2022-10-05T11:19:07.183Z,345
2022-10-05T11:20:08.051Z,344
2022-10-05T11:21:07.469Z,342
2022-10-05T11:22:07.676Z,341
2022-10-05T11:24:07.341Z,338
2022-10-05T11:25:07.689Z,330
2022-10-05T11:26:07.957Z,326
2022-10-05T11:27:08.209Z,329
2022-10-05T11:28:07.802Z,336
2022-10-05T11:29:07.841Z,337
2022-10-05T11:30:07.866Z,328
2022-10-05T11:31:08.063Z,334
2022-10-05T11:33:07.549Z,339
2022-10-05T11:34:07.557Z,318
2022-10-05T11:35:07.486Z,361
2022-10-05T11:36:07.527Z,336
2022-10-05T11:37:07.706Z,333
2022-10-05T11:38:07.779Z,339
2022-10-05T11:39:07.740Z,348
2022-10-05T11:40:07.956Z,345
2022-10-05T11:41:08.106Z,344
2022-10-05T11:42:08.372Z,332
2022-10-05T11:43:07.615Z,329
2022-10-05T11:44:07.787Z,335
2022-10-05T11:45:08.500Z,333
2022-10-05T11:47:08.072Z,337
2022-10-05T11:48:07.301Z,336
2022-10-05T11:49:08.250Z,328
2022-10-05T11:50:07.611Z,334
2022-10-05T11:51:07.691Z,335
2022-10-05T11:52:07.756Z,337
2022-10-05T11:53:07.978Z,341
2022-10-05T11:54:07.902Z,339
2022-10-05T11:55:12.184Z,344
2022-10-05T11:56:07.429Z,333
2022-10-05T11:57:07.608Z,332
2022-10-05T11:58:07.430Z,330
2022-10-05T11:59:07.367Z,333
2022-10-05T12:00:08.752Z,334
2022-10-05T12:01:08.029Z,336
2022-10-05T12:02:08.413Z,332
2022-10-05T12:03:07.845Z,337
2022-10-05T12:04:07.610Z,330
2022-10-05T12:05:07.917Z,320
2022-10-05T12:06:07.660Z,326
2022-10-05T12:07:07.599Z,375
2022-10-05T12:08:07.653Z,336
2022-10-05T12:09:07.880Z,338
2022-10-05T12:10:08.141Z,334
2022-10-05T12:11:08.472Z,342
2022-10-05T12:13:07.636Z,341
2022-10-05T12:14:07.703Z,340
2022-10-05T12:15:07.816Z,334
2022-10-05T12:16:07.488Z,338
2022-10-05T12:17:07.586Z,344
2022-10-05T12:18:07.630Z,351
2022-10-05T12:19:07.194Z,354
2022-10-05T12:20:08.290Z,340
2022-10-05T12:21:07.575Z,333
2022-10-05T12:22:07.652Z,346
2022-10-05T12:23:07.596Z,327
2022-10-05T12:24:07.329Z,342
2022-10-05T12:25:07.693Z,341
2022-10-05T12:26:29.492Z,333
2022-10-05T12:27:07.523Z,341
2022-10-05T12:28:07.585Z,339
2022-10-05T12:29:07.296Z,345
2022-10-05T12:30:07.702Z,340
2022-10-05T12:31:07.711Z,331
2022-10-05T12:32:07.958Z,324
2022-10-05T12:33:07.947Z,336
2022-10-05T12:34:07.887Z,342
2022-10-05T12:35:07.949Z,347
2022-10-05T12:36:07.776Z,350
2022-10-05T12:37:07.491Z,345
2022-10-05T12:38:07.407Z,315
2022-10-05T12:39:07.558Z,367
2022-10-05T12:40:07.679Z,335
2022-10-05T12:41:07.580Z,331
2022-10-05T12:42:07.498Z,337
2022-10-05T12:43:07.606Z,327
2022-10-05T12:44:07.173Z,322
2022-10-05T12:45:08.170Z,333
2022-10-05T12:46:08.230Z,331
2022-10-05T12:47:07.800Z,339
2022-10-05T12:48:07.736Z,338
2022-10-05T12:49:07.575Z,340
2022-10-05T12:51:07.585Z,337
2022-10-05T12:52:07.520Z,341
2022-10-05T12:53:07.409Z,330
2022-10-05T12:54:07.620Z,328
2022-10-05T12:55:07.123Z,335
2022-10-05T12:56:08.169Z,344
2022-10-05T12:57:07.600Z,353
2022-10-05T12:58:07.460Z,352
2022-10-05T12:59:07.453Z,351
2022-10-05T13:00:08.165Z,361
2022-10-05T13:02:07.745Z,352
2022-10-05T13:03:07.787Z,361
2022-10-05T13:04:07.670Z,363
2022-10-05T13:05:08.042Z,346
2022-10-05T13:06:08.134Z,347
2022-10-05T13:07:07.564Z,357
2022-10-05T13:08:07.640Z,321
2022-10-05T13:09:07.801Z,406
2022-10-05T13:10:08.064Z,365
2022-10-05T13:11:10.236Z,344
2022-10-05T13:12:08.245Z,351
2022-10-05T13:13:07.359Z,350
2022-10-05T13:15:08.045Z,352
2022-10-05T13:16:08.176Z,347
2022-10-05T13:17:07.775Z,346
2022-10-05T13:18:07.765Z,341
2022-10-05T13:19:08.047Z,342
2022-10-05T13:20:08.295Z,340
2022-10-05T13:21:08.041Z,335
2022-10-05T13:22:08.245Z,334
2022-10-05T13:23:07.503Z,316
2022-10-05T13:24:07.544Z,346
2022-10-05T13:25:07.691Z,326
2022-10-05T13:26:07.628Z,338
2022-10-05T13:27:08.263Z,345
2022-10-05T13:28:07.761Z,348
2022-10-05T13:29:07.922Z,335
2022-10-05T13:30:08.154Z,327
2022-10-05T13:31:07.444Z,328
2022-10-05T13:32:07.872Z,332
2022-10-05T13:33:08.203Z,330
2022-10-05T13:34:08.356Z,344
2022-10-05T13:35:11.397Z,340
2022-10-05T13:36:08.093Z,331
2022-10-05T13:37:07.508Z,338
2022-10-05T13:39:08.028Z,342
2022-10-05T13:40:08.281Z,341
2022-10-05T13:41:07.414Z,346
2022-10-05T13:42:07.402Z,348
2022-10-05T13:43:07.653Z,351
2022-10-05T13:44:07.625Z,349
2022-10-05T13:45:07.767Z,344
2022-10-05T13:46:08.065Z,348
2022-10-05T13:47:07.430Z,354
2022-10-05T13:48:07.755Z,348
2022-10-05T13:49:07.820Z,350
2022-10-05T13:50:07.862Z,351
2022-10-05T13:51:07.808Z,349
2022-10-05T13:52:07.888Z,341
2022-10-05T13:53:07.983Z,356
2022-10-05T13:54:08.094Z,329
2022-10-05T13:55:08.091Z,335
2022-10-05T13:56:08.220Z,337
2022-10-05T13:57:08.252Z,341
2022-10-05T13:58:08.177Z,338
2022-10-05T13:59:07.915Z,330
2022-10-05T14:00:08.603Z,335
2022-10-05T14:01:07.692Z,330
2022-10-05T14:02:08.130Z,332
2022-10-05T14:03:08.126Z,342
2022-10-05T14:04:08.194Z,350
2022-10-05T14:05:08.077Z,342
2022-10-05T14:07:12.419Z,340
2022-10-05T14:08:07.715Z,346
2022-10-05T14:09:07.421Z,301
2022-10-05T14:10:07.654Z,324
2022-10-05T14:11:13.139Z,335
2022-10-05T14:12:07.346Z,334
2022-10-05T14:13:07.404Z,341
2022-10-05T14:14:07.278Z,348
2022-10-05T14:15:08.174Z,354
2022-10-05T14:16:07.865Z,350
2022-10-05T14:17:08.523Z,337
2022-10-05T14:18:07.938Z,341
2022-10-05T14:19:08.227Z,337
2022-10-05T14:20:08.052Z,342
2022-10-05T14:21:16.673Z,350
2022-10-05T14:22:07.958Z,341
2022-10-05T14:23:07.544Z,343
2022-10-05T14:24:08.550Z,308
2022-10-05T14:25:07.660Z,319
2022-10-05T14:26:07.414Z,335
2022-10-05T14:27:07.512Z,337
2022-10-05T14:28:07.388Z,335
2022-10-05T14:29:07.440Z,330
2022-10-05T14:30:07.590Z,343
2022-10-05T14:31:07.699Z,342
2022-10-05T14:32:07.896Z,345
2022-10-05T14:33:07.911Z,347
2022-10-05T14:34:07.639Z,348
2022-10-05T14:35:07.545Z,347
2022-10-05T14:36:07.362Z,349
2022-10-05T14:37:07.334Z,348
2022-10-05T14:38:07.189Z,335
2022-10-05T14:39:08.012Z,379
2022-10-05T14:40:08.216Z,348